sensor_id;sensor_type;location;lat;lon;timestamp;P1;durP1;ratioP1;P2;durP2;ratioP2
14015;SDS011;7083;48.854;9.158;2022-11-20T00:00:30;482.27;;;457.77;;
14015;SDS011;7083;48.854;9.158;2022-11-20T00:10:22;498.37;;;471.67;;
14015;SDS011;7083;48.854;9.158;2022-11-20T00:26:45;418.40;;;399.13;;
14015;SDS011;7083;48.854;9.158;2022-11-20T01:08:04;464.10;;;440.47;;
14015;SDS011;7083;48.854;9.158;2022-11-20T01:10:31;475.77;;;452.47;;
14015;SDS011;7083;48.854;9.158;2022-11-20T01:12:57;490.87;;;465.73;;
14015;SDS011;7083;48.854;9.158;2022-11-20T01:15:38;475.87;;;452.20;;
14015;SDS011;7083;48.854;9.158;2022-11-20T01:18:05;500.17;;;476.10;;
14015;SDS011;7083;48.854;9.158;2022-11-20T01:20:33;468.87;;;445.90;;
14015;SDS011;7083;48.854;9.158;2022-11-20T01:23:01;467.93;;;444.67;;
14015;SDS011;7083;48.854;9.158;2022-11-20T01:25:30;469.27;;;444.90;;
14015;SDS011;7083;48.854;9.158;2022-11-20T01:27:56;452.40;;;430.33;;
14015;SDS011;7083;48.854;9.158;2022-11-20T01:30:23;450.90;;;429.83;;
14015;SDS011;7083;48.854;9.158;2022-11-20T01:32:50;473.13;;;450.47;;
14015;SDS011;7083;48.854;9.158;2022-11-20T01:35:17;472.00;;;449.40;;
14015;SDS011;7083;48.854;9.158;2022-11-20T01:37:43;488.70;;;465.03;;
14015;SDS011;7083;48.854;9.158;2022-11-20T01:40:12;537.20;;;510.53;;
14015;SDS011;7083;48.854;9.158;2022-11-20T01:42:43;443.17;;;422.53;;
14015;SDS011;7083;48.854;9.158;2022-11-20T01:45:48;433.97;;;412.73;;
14015;SDS011;7083;48.854;9.158;2022-11-20T01:48:29;460.73;;;438.80;;
14015;SDS011;7083;48.854;9.158;2022-11-20T01:50:59;540.27;;;513.67;;
14015;SDS011;7083;48.854;9.158;2022-11-20T01:53:29;455.80;;;434.40;;
14015;SDS011;7083;48.854;9.158;2022-11-20T01:56:01;495.00;;;470.57;;
14015;SDS011;7083;48.854;9.158;2022-11-20T01:58:32;456.47;;;434.33;;
14015;SDS011;7083;48.854;9.158;2022-11-20T02:01:02;545.97;;;518.87;;
14015;SDS011;7083;48.854;9.158;2022-11-20T02:03:30;478.07;;;455.27;;
14015;SDS011;7083;48.854;9.158;2022-11-20T02:05:59;497.70;;;473.83;;
14015;SDS011;7083;48.854;9.158;2022-11-20T02:08:30;496.83;;;473.17;;
14015;SDS011;7083;48.854;9.158;2022-11-20T02:10:58;555.10;;;527.03;;
14015;SDS011;7083;48.854;9.158;2022-11-20T02:13:26;496.03;;;472.27;;
14015;SDS011;7083;48.854;9.158;2022-11-20T02:16:13;472.20;;;450.27;;
14015;SDS011;7083;48.854;9.158;2022-11-20T02:18:42;495.70;;;472.03;;
14015;SDS011;7083;48.854;9.158;2022-11-20T02:21:13;493.40;;;469.33;;
14015;SDS011;7083;48.854;9.158;2022-11-20T02:23:57;510.63;;;485.50;;
14015;SDS011;7083;48.854;9.158;2022-11-20T02:26:29;518.77;;;493.50;;
14015;SDS011;7083;48.854;9.158;2022-11-20T02:29:00;536.33;;;509.87;;
14015;SDS011;7083;48.854;9.158;2022-11-20T02:31:28;552.60;;;525.20;;
14015;SDS011;7083;48.854;9.158;2022-11-20T02:33:59;512.93;;;488.03;;
14015;SDS011;7083;48.854;9.158;2022-11-20T02:36:26;568.93;;;540.60;;
14015;SDS011;7083;48.854;9.158;2022-11-20T02:38:54;542.37;;;515.33;;
14015;SDS011;7083;48.854;9.158;2022-11-20T02:41:22;520.53;;;495.60;;
14015;SDS011;7083;48.854;9.158;2022-11-20T02:43:57;599.93;;;568.67;;
14015;SDS011;7083;48.854;9.158;2022-11-20T02:46:23;579.60;;;550.30;;
14015;SDS011;7083;48.854;9.158;2022-11-20T02:48:50;648.13;;;614.20;;
14015;SDS011;7083;48.854;9.158;2022-11-20T02:51:17;599.53;;;568.37;;
14015;SDS011;7083;48.854;9.158;2022-11-20T02:53:44;581.13;;;551.67;;
14015;SDS011;7083;48.854;9.158;2022-11-20T02:56:10;574.50;;;545.00;;
14015;SDS011;7083;48.854;9.158;2022-11-20T02:58:38;626.57;;;593.43;;
14015;SDS011;7083;48.854;9.158;2022-11-20T03:01:05;605.03;;;573.23;;
14015;SDS011;7083;48.854;9.158;2022-11-20T03:03:32;589.60;;;559.57;;
14015;SDS011;7083;48.854;9.158;2022-11-20T03:05:59;572.27;;;542.70;;
14015;SDS011;7083;48.854;9.158;2022-11-20T03:08:26;573.90;;;544.17;;
14015;SDS011;7083;48.854;9.158;2022-11-20T03:10:53;595.40;;;564.43;;
14015;SDS011;7083;48.854;9.158;2022-11-20T03:13:20;550.77;;;522.83;;
14015;SDS011;7083;48.854;9.158;2022-11-20T03:15:48;543.40;;;515.93;;
14015;SDS011;7083;48.854;9.158;2022-11-20T03:18:14;578.07;;;548.33;;
14015;SDS011;7083;48.854;9.158;2022-11-20T03:20:41;539.47;;;512.40;;
14015;SDS011;7083;48.854;9.158;2022-11-20T03:23:08;559.70;;;531.07;;
14015;SDS011;7083;48.854;9.158;2022-11-20T03:25:35;528.37;;;502.27;;
14015;SDS011;7083;48.854;9.158;2022-11-20T03:28:01;544.17;;;516.70;;
14015;SDS011;7083;48.854;9.158;2022-11-20T03:30:28;517.10;;;491.90;;
14015;SDS011;7083;48.854;9.158;2022-11-20T03:32:56;511.40;;;486.37;;
14015;SDS011;7083;48.854;9.158;2022-11-20T03:35:23;519.03;;;493.40;;
14015;SDS011;7083;48.854;9.158;2022-11-20T03:37:50;528.80;;;502.67;;
14015;SDS011;7083;48.854;9.158;2022-11-20T03:40:17;508.40;;;483.83;;
14015;SDS011;7083;48.854;9.158;2022-11-20T03:42:44;524.07;;;498.13;;
14015;SDS011;7083;48.854;9.158;2022-11-20T03:45:10;507.50;;;482.80;;
14015;SDS011;7083;48.854;9.158;2022-11-20T03:47:38;504.43;;;480.10;;
14015;SDS011;7083;48.854;9.158;2022-11-20T03:50:06;519.30;;;494.07;;
14015;SDS011;7083;48.854;9.158;2022-11-20T03:52:34;541.60;;;514.27;;
14015;SDS011;7083;48.854;9.158;2022-11-20T03:55:00;550.43;;;522.60;;
14015;SDS011;7083;48.854;9.158;2022-11-20T03:57:27;526.63;;;500.60;;
14015;SDS011;7083;48.854;9.158;2022-11-20T03:59:54;521.17;;;495.50;;
14015;SDS011;7083;48.854;9.158;2022-11-20T04:02:20;520.70;;;495.17;;
14015;SDS011;7083;48.854;9.158;2022-11-20T04:04:47;522.07;;;496.27;;
14015;SDS011;7083;48.854;9.158;2022-11-20T04:07:15;517.67;;;492.00;;
14015;SDS011;7083;48.854;9.158;2022-11-20T04:09:42;529.53;;;503.53;;
14015;SDS011;7083;48.854;9.158;2022-11-20T04:12:09;514.13;;;489.00;;
14015;SDS011;7083;48.854;9.158;2022-11-20T04:14:36;511.03;;;486.33;;
14015;SDS011;7083;48.854;9.158;2022-11-20T04:17:03;536.67;;;509.87;;
14015;SDS011;7083;48.854;9.158;2022-11-20T04:19:30;579.93;;;550.63;;
14015;SDS011;7083;48.854;9.158;2022-11-20T04:21:57;505.23;;;480.83;;
14015;SDS011;7083;48.854;9.158;2022-11-20T04:24:25;563.90;;;535.97;;
14015;SDS011;7083;48.854;9.158;2022-11-20T04:26:52;494.80;;;471.23;;
14015;SDS011;7083;48.854;9.158;2022-11-20T04:29:19;503.40;;;478.73;;
14015;SDS011;7083;48.854;9.158;2022-11-20T04:31:46;523.50;;;497.67;;
14015;SDS011;7083;48.854;9.158;2022-11-20T04:34:13;547.00;;;519.83;;
14015;SDS011;7083;48.854;9.158;2022-11-20T04:36:39;509.70;;;485.20;;
14015;SDS011;7083;48.854;9.158;2022-11-20T04:39:11;540.87;;;513.83;;
14015;SDS011;7083;48.854;9.158;2022-11-20T04:41:40;545.83;;;518.27;;
14015;SDS011;7083;48.854;9.158;2022-11-20T04:44:06;603.20;;;572.30;;
14015;SDS011;7083;48.854;9.158;2022-11-20T04:46:34;543.17;;;516.40;;
14015;SDS011;7083;48.854;9.158;2022-11-20T04:49:02;628.80;;;596.23;;
14015;SDS011;7083;48.854;9.158;2022-11-20T04:51:29;577.30;;;548.40;;
14015;SDS011;7083;48.854;9.158;2022-11-20T04:53:56;515.70;;;490.47;;
14015;SDS011;7083;48.854;9.158;2022-11-20T04:56:23;615.43;;;583.67;;
14015;SDS011;7083;48.854;9.158;2022-11-20T04:58:51;538.90;;;512.00;;
14015;SDS011;7083;48.854;9.158;2022-11-20T05:01:19;535.97;;;509.50;;
14015;SDS011;7083;48.854;9.158;2022-11-20T05:03:47;533.90;;;507.73;;
14015;SDS011;7083;48.854;9.158;2022-11-20T05:06:15;537.10;;;510.37;;
14015;SDS011;7083;48.854;9.158;2022-11-20T05:08:43;525.60;;;499.50;;
14015;SDS011;7083;48.854;9.158;2022-11-20T05:11:11;500.00;;;476.03;;
14015;SDS011;7083;48.854;9.158;2022-11-20T05:13:39;525.77;;;499.50;;
14015;SDS011;7083;48.854;9.158;2022-11-20T05:16:08;504.67;;;480.03;;
14015;SDS011;7083;48.854;9.158;2022-11-20T05:18:36;574.27;;;545.47;;
14015;SDS011;7083;48.854;9.158;2022-11-20T05:21:04;544.53;;;517.80;;
14015;SDS011;7083;48.854;9.158;2022-11-20T05:23:31;509.50;;;484.80;;
14015;SDS011;7083;48.854;9.158;2022-11-20T05:25:59;494.33;;;470.77;;
14015;SDS011;7083;48.854;9.158;2022-11-20T05:28:26;493.57;;;470.43;;
14015;SDS011;7083;48.854;9.158;2022-11-20T05:30:55;511.40;;;486.47;;
14015;SDS011;7083;48.854;9.158;2022-11-20T05:33:23;501.20;;;476.60;;
14015;SDS011;7083;48.854;9.158;2022-11-20T05:35:49;577.67;;;548.73;;
14015;SDS011;7083;48.854;9.158;2022-11-20T05:38:16;528.73;;;503.27;;
14015;SDS011;7083;48.854;9.158;2022-11-20T05:40:43;533.83;;;507.50;;
14015;SDS011;7083;48.854;9.158;2022-11-20T05:43:10;520.40;;;494.97;;
14015;SDS011;7083;48.854;9.158;2022-11-20T05:45:36;525.90;;;499.70;;
14015;SDS011;7083;48.854;9.158;2022-11-20T05:48:03;566.00;;;537.67;;
14015;SDS011;7083;48.854;9.158;2022-11-20T05:50:31;551.47;;;524.07;;
14015;SDS011;7083;48.854;9.158;2022-11-20T05:52:58;525.93;;;499.93;;
14015;SDS011;7083;48.854;9.158;2022-11-20T05:55:25;531.20;;;504.80;;
14015;SDS011;7083;48.854;9.158;2022-11-20T05:57:52;537.43;;;510.53;;
14015;SDS011;7083;48.854;9.158;2022-11-20T06:00:19;519.13;;;493.83;;
14015;SDS011;7083;48.854;9.158;2022-11-20T06:02:46;510.93;;;485.80;;
14015;SDS011;7083;48.854;9.158;2022-11-20T06:05:13;542.23;;;515.47;;
14015;SDS011;7083;48.854;9.158;2022-11-20T06:07:41;501.00;;;476.67;;
14015;SDS011;7083;48.854;9.158;2022-11-20T06:10:08;557.80;;;530.33;;
14015;SDS011;7083;48.854;9.158;2022-11-20T06:12:35;530.90;;;504.80;;
14015;SDS011;7083;48.854;9.158;2022-11-20T06:15:03;546.60;;;518.47;;
14015;SDS011;7083;48.854;9.158;2022-11-20T06:17:30;517.07;;;491.70;;
14015;SDS011;7083;48.854;9.158;2022-11-20T06:19:57;569.07;;;540.23;;
14015;SDS011;7083;48.854;9.158;2022-11-20T06:22:24;517.30;;;491.93;;
14015;SDS011;7083;48.854;9.158;2022-11-20T06:24:52;535.80;;;509.27;;
14015;SDS011;7083;48.854;9.158;2022-11-20T06:27:18;514.40;;;489.00;;
14015;SDS011;7083;48.854;9.158;2022-11-20T06:29:45;601.13;;;569.00;;
14015;SDS011;7083;48.854;9.158;2022-11-20T06:32:12;498.83;;;474.50;;
14015;SDS011;7083;48.854;9.158;2022-11-20T06:34:39;539.10;;;512.30;;
14015;SDS011;7083;48.854;9.158;2022-11-20T06:37:05;558.37;;;530.63;;
14015;SDS011;7083;48.854;9.158;2022-11-20T06:39:32;568.97;;;540.50;;
14015;SDS011;7083;48.854;9.158;2022-11-20T06:42:00;601.07;;;570.73;;
14015;SDS011;7083;48.854;9.158;2022-11-20T06:44:27;544.93;;;517.53;;
14015;SDS011;7083;48.854;9.158;2022-11-20T06:46:54;527.07;;;501.17;;
14015;SDS011;7083;48.854;9.158;2022-11-20T06:49:20;529.03;;;503.03;;
14015;SDS011;7083;48.854;9.158;2022-11-20T06:51:47;565.07;;;536.87;;
14015;SDS011;7083;48.854;9.158;2022-11-20T06:54:14;565.27;;;536.57;;
14015;SDS011;7083;48.854;9.158;2022-11-20T06:56:40;624.83;;;592.23;;
14015;SDS011;7083;48.854;9.158;2022-11-20T06:59:09;637.23;;;603.80;;
14015;SDS011;7083;48.854;9.158;2022-11-20T07:01:35;545.17;;;517.53;;
14015;SDS011;7083;48.854;9.158;2022-11-20T07:04:02;558.87;;;530.73;;
14015;SDS011;7083;48.854;9.158;2022-11-20T07:06:29;541.33;;;514.43;;
14015;SDS011;7083;48.854;9.158;2022-11-20T07:08:56;540.83;;;513.83;;
14015;SDS011;7083;48.854;9.158;2022-11-20T07:11:23;543.17;;;516.20;;
14015;SDS011;7083;48.854;9.158;2022-11-20T07:13:50;604.23;;;571.47;;
14015;SDS011;7083;48.854;9.158;2022-11-20T07:16:18;526.50;;;500.53;;
14015;SDS011;7083;48.854;9.158;2022-11-20T07:18:45;514.40;;;489.43;;
14015;SDS011;7083;48.854;9.158;2022-11-20T07:21:12;512.07;;;487.47;;
14015;SDS011;7083;48.854;9.158;2022-11-20T07:23:38;565.07;;;536.37;;
14015;SDS011;7083;48.854;9.158;2022-11-20T07:26:06;569.20;;;539.83;;
14015;SDS011;7083;48.854;9.158;2022-11-20T07:28:34;614.73;;;581.47;;
14015;SDS011;7083;48.854;9.158;2022-11-20T07:31:01;683.07;;;645.27;;
14015;SDS011;7083;48.854;9.158;2022-11-20T07:33:29;768.47;;;722.07;;
14015;SDS011;7083;48.854;9.158;2022-11-20T07:35:56;729.50;;;687.90;;
14015;SDS011;7083;48.854;9.158;2022-11-20T07:38:24;689.33;;;649.97;;
14015;SDS011;7083;48.854;9.158;2022-11-20T07:40:53;625.53;;;591.50;;
14015;SDS011;7083;48.854;9.158;2022-11-20T07:43:20;686.67;;;646.97;;
14015;SDS011;7083;48.854;9.158;2022-11-20T07:45:47;613.73;;;580.30;;
14015;SDS011;7083;48.854;9.158;2022-11-20T07:48:14;692.60;;;652.77;;
14015;SDS011;7083;48.854;9.158;2022-11-20T07:50:42;796.80;;;748.13;;
14015;SDS011;7083;48.854;9.158;2022-11-20T07:53:09;698.33;;;657.50;;
14015;SDS011;7083;48.854;9.158;2022-11-20T07:55:37;727.23;;;684.27;;
14015;SDS011;7083;48.854;9.158;2022-11-20T07:58:04;681.33;;;641.77;;
14015;SDS011;7083;48.854;9.158;2022-11-20T08:00:30;627.87;;;593.87;;
14015;SDS011;7083;48.854;9.158;2022-11-20T08:02:57;836.83;;;783.53;;
14015;SDS011;7083;48.854;9.158;2022-11-20T08:05:24;731.40;;;687.23;;
14015;SDS011;7083;48.854;9.158;2022-11-20T08:07:52;872.43;;;816.87;;
14015;SDS011;7083;48.854;9.158;2022-11-20T08:10:19;854.27;;;800.50;;
14015;SDS011;7083;48.854;9.158;2022-11-20T08:12:46;837.77;;;783.40;;
14015;SDS011;7083;48.854;9.158;2022-11-20T08:15:31;794.63;;;744.23;;
14015;SDS011;7083;48.854;9.158;2022-11-20T08:17:59;867.10;;;807.23;;
14015;SDS011;7083;48.854;9.158;2022-11-20T08:20:26;909.27;;;846.27;;
14015;SDS011;7083;48.854;9.158;2022-11-20T08:22:58;955.10;;;886.67;;
14015;SDS011;7083;48.854;9.158;2022-11-20T08:25:26;1030.77;;;953.40;;
14015;SDS011;7083;48.854;9.158;2022-11-20T08:27:53;1054.77;;;972.27;;
14015;SDS011;7083;48.854;9.158;2022-11-20T08:30:20;821.13;;;753.13;;
14015;SDS011;7083;48.854;9.158;2022-11-20T08:32:46;1701.57;;;999.90;;
14015;SDS011;7083;48.854;9.158;2022-11-20T08:35:13;995.27;;;906.87;;
14015;SDS011;7083;48.854;9.158;2022-11-20T08:37:40;1159.67;;;999.90;;
14015;SDS011;7083;48.854;9.158;2022-11-20T08:40:10;1709.27;;;999.90;;
14015;SDS011;7083;48.854;9.158;2022-11-20T08:42:45;837.60;;;760.47;;
14015;SDS011;7083;48.854;9.158;2022-11-20T08:45:12;1232.60;;;999.90;;
14015;SDS011;7083;48.854;9.158;2022-11-20T08:47:39;1240.13;;;999.90;;
14015;SDS011;7083;48.854;9.158;2022-11-20T08:50:06;1999.90;;;999.90;;
14015;SDS011;7083;48.854;9.158;2022-11-20T08:52:33;1999.90;;;999.90;;
14015;SDS011;7083;48.854;9.158;2022-11-20T08:55:00;1999.90;;;999.90;;
14015;SDS011;7083;48.854;9.158;2022-11-20T08:57:28;1999.90;;;999.90;;
14015;SDS011;7083;48.854;9.158;2022-11-20T08:59:57;1999.90;;;999.90;;
14015;SDS011;7083;48.854;9.158;2022-11-20T09:02:25;1999.90;;;999.90;;
14015;SDS011;7083;48.854;9.158;2022-11-20T09:04:51;1999.90;;;999.90;;
14015;SDS011;7083;48.854;9.158;2022-11-20T09:07:19;1999.90;;;999.90;;
14015;SDS011;7083;48.854;9.158;2022-11-20T09:09:46;1999.90;;;999.90;;
14015;SDS011;7083;48.854;9.158;2022-11-20T09:12:13;1999.90;;;999.90;;
14015;SDS011;7083;48.854;9.158;2022-11-20T09:14:41;1999.90;;;999.90;;
14015;SDS011;7083;48.854;9.158;2022-11-20T09:17:09;1999.90;;;999.90;;
14015;SDS011;7083;48.854;9.158;2022-11-20T09:19:38;1072.20;;;969.23;;
14015;SDS011;7083;48.854;9.158;2022-11-20T09:22:05;1578.83;;;888.00;;
14015;SDS011;7083;48.854;9.158;2022-11-20T09:24:31;1999.90;;;999.90;;
14015;SDS011;7083;48.854;9.158;2022-11-20T09:27:00;1999.90;;;999.90;;
14015;SDS011;7083;48.854;9.158;2022-11-20T09:29:28;1999.90;;;999.90;;
14015;SDS011;7083;48.854;9.158;2022-11-20T09:31:56;1999.90;;;999.90;;
14015;SDS011;7083;48.854;9.158;2022-11-20T09:34:23;1999.90;;;999.90;;
14015;SDS011;7083;48.854;9.158;2022-11-20T09:36:50;1999.90;;;999.90;;
14015;SDS011;7083;48.854;9.158;2022-11-20T09:39:16;1999.90;;;999.90;;
14015;SDS011;7083;48.854;9.158;2022-11-20T09:41:51;1999.90;;;999.90;;
14015;SDS011;7083;48.854;9.158;2022-11-20T09:44:38;1999.90;;;999.90;;
14015;SDS011;7083;48.854;9.158;2022-11-20T09:47:16;1999.90;;;999.90;;
14015;SDS011;7083;48.854;9.158;2022-11-20T09:49:57;1999.90;;;999.90;;
14015;SDS011;7083;48.854;9.158;2022-11-20T09:52:37;1999.90;;;999.90;;
14015;SDS011;7083;48.854;9.158;2022-11-20T09:55:11;1999.90;;;999.90;;
14015;SDS011;7083;48.854;9.158;2022-11-20T09:57:40;1999.90;;;999.90;;
14015;SDS011;7083;48.854;9.158;2022-11-20T10:00:10;1999.90;;;999.90;;
14015;SDS011;7083;48.854;9.158;2022-11-20T10:02:41;1999.90;;;999.90;;
14015;SDS011;7083;48.854;9.158;2022-11-20T10:05:12;875.83;;;805.00;;
14015;SDS011;7083;48.854;9.158;2022-11-20T10:07:43;680.47;;;618.13;;
14015;SDS011;7083;48.854;9.158;2022-11-20T10:10:21;851.07;;;773.50;;
14015;SDS011;7083;48.854;9.158;2022-11-20T10:12:58;525.57;;;480.63;;
14015;SDS011;7083;48.854;9.158;2022-11-20T10:15:40;530.63;;;486.57;;
14015;SDS011;7083;48.854;9.158;2022-11-20T10:18:20;421.13;;;389.80;;
14015;SDS011;7083;48.854;9.158;2022-11-20T10:20:56;1561.70;;;876.50;;
14015;SDS011;7083;48.854;9.158;2022-11-20T10:23:40;1009.17;;;643.67;;
14015;SDS011;7083;48.854;9.158;2022-11-20T10:26:31;1474.23;;;798.03;;
14015;SDS011;7083;48.854;9.158;2022-11-20T10:29:07;1509.83;;;829.07;;
14015;SDS011;7083;48.854;9.158;2022-11-20T10:31:39;1009.37;;;937.43;;
14015;SDS011;7083;48.854;9.158;2022-11-20T10:34:12;981.87;;;910.20;;
14015;SDS011;7083;48.854;9.158;2022-11-20T10:36:48;982.57;;;911.80;;
14015;SDS011;7083;48.854;9.158;2022-11-20T10:39:22;619.88;;;589.03;;
14015;SDS011;7083;48.854;9.158;2022-11-20T10:41:54;694.77;;;654.57;;
14015;SDS011;7083;48.854;9.158;2022-11-20T10:44:26;844.47;;;792.83;;
14015;SDS011;7083;48.854;9.158;2022-11-20T10:47:12;443.23;;;423.70;;
14015;SDS011;7083;48.854;9.158;2022-11-20T10:49:42;1119.17;;;999.90;;
14015;SDS011;7083;48.854;9.158;2022-11-20T10:52:13;1158.33;;;999.90;;
14015;SDS011;7083;48.854;9.158;2022-11-20T10:54:47;1069.00;;;985.30;;
14015;SDS011;7083;48.854;9.158;2022-11-20T10:57:25;1070.93;;;988.13;;
14015;SDS011;7083;48.854;9.158;2022-11-20T11:00:03;897.53;;;834.87;;
14015;SDS011;7083;48.854;9.158;2022-11-20T11:02:33;929.13;;;865.90;;
14015;SDS011;7083;48.854;9.158;2022-11-20T11:05:10;883.50;;;823.67;;
14015;SDS011;7083;48.854;9.158;2022-11-20T11:07:44;827.23;;;773.43;;
14015;SDS011;7083;48.854;9.158;2022-11-20T11:10:16;940.27;;;876.97;;
14015;SDS011;7083;48.854;9.158;2022-11-20T11:12:46;825.93;;;771.67;;
14015;SDS011;7083;48.854;9.158;2022-11-20T11:15:14;894.30;;;834.20;;
14015;SDS011;7083;48.854;9.158;2022-11-20T11:17:51;852.40;;;796.00;;
14015;SDS011;7083;48.854;9.158;2022-11-20T11:20:20;880.63;;;820.13;;
14015;SDS011;7083;48.854;9.158;2022-11-20T11:22:48;800.37;;;749.83;;
14015;SDS011;7083;48.854;9.158;2022-11-20T11:25:27;876.77;;;814.73;;
14015;SDS011;7083;48.854;9.158;2022-11-20T11:27:57;913.87;;;850.27;;
14015;SDS011;7083;48.854;9.158;2022-11-20T11:30:26;937.10;;;870.73;;
14015;SDS011;7083;48.854;9.158;2022-11-20T11:33:05;938.90;;;870.33;;
14015;SDS011;7083;48.854;9.158;2022-11-20T11:35:38;946.00;;;877.50;;
14015;SDS011;7083;48.854;9.158;2022-11-20T11:38:11;897.77;;;834.90;;
14015;SDS011;7083;48.854;9.158;2022-11-20T11:40:42;849.10;;;793.17;;
14015;SDS011;7083;48.854;9.158;2022-11-20T11:43:16;797.13;;;746.93;;
14015;SDS011;7083;48.854;9.158;2022-11-20T11:45:58;743.10;;;697.23;;
14015;SDS011;7083;48.854;9.158;2022-11-20T11:48:25;743.77;;;698.90;;
14015;SDS011;7083;48.854;9.158;2022-11-20T11:50:53;664.83;;;628.10;;
14015;SDS011;7083;48.854;9.158;2022-11-20T11:53:21;728.37;;;684.73;;
14015;SDS011;7083;48.854;9.158;2022-11-20T11:55:50;864.33;;;807.93;;
14015;SDS011;7083;48.854;9.158;2022-11-20T11:58:34;1080.03;;;998.20;;
14015;SDS011;7083;48.854;9.158;2022-11-20T12:01:20;1149.87;;;999.90;;
14015;SDS011;7083;48.854;9.158;2022-11-20T12:03:59;1000.33;;;603.27;;
14015;SDS011;7083;48.854;9.158;2022-11-20T12:06:31;1999.90;;;999.90;;
14015;SDS011;7083;48.854;9.158;2022-11-20T12:09:01;1999.90;;;999.90;;
14015;SDS011;7083;48.854;9.158;2022-11-20T12:11:31;516.23;;;492.50;;
14015;SDS011;7083;48.854;9.158;2022-11-20T12:14:04;1999.90;;;999.90;;
14015;SDS011;7083;48.854;9.158;2022-11-20T12:16:40;1999.90;;;999.90;;
14015;SDS011;7083;48.854;9.158;2022-11-20T12:19:08;1999.90;;;999.90;;
14015;SDS011;7083;48.854;9.158;2022-11-20T12:21:40;1999.90;;;999.90;;
14015;SDS011;7083;48.854;9.158;2022-11-20T12:24:21;1999.90;;;999.90;;
14015;SDS011;7083;48.854;9.158;2022-11-20T12:27:06;1999.90;;;999.90;;
14015;SDS011;7083;48.854;9.158;2022-11-20T12:29:46;1999.90;;;999.90;;
14015;SDS011;7083;48.854;9.158;2022-11-20T12:32:31;1999.90;;;999.90;;
14015;SDS011;7083;48.854;9.158;2022-11-20T12:35:34;1999.90;;;999.90;;
14015;SDS011;7083;48.854;9.158;2022-11-20T12:38:35;1999.90;;;999.90;;
14015;SDS011;7083;48.854;9.158;2022-11-20T12:41:12;1999.90;;;999.90;;
14015;SDS011;7083;48.854;9.158;2022-11-20T12:44:08;1999.90;;;999.90;;
14015;SDS011;7083;48.854;9.158;2022-11-20T12:47:08;1999.90;;;999.90;;
14015;SDS011;7083;48.854;9.158;2022-11-20T12:49:44;1999.90;;;999.90;;
14015;SDS011;7083;48.854;9.158;2022-11-20T12:52:20;1999.90;;;999.90;;
14015;SDS011;7083;48.854;9.158;2022-11-20T12:57:53;1999.90;;;999.90;;
14015;SDS011;7083;48.854;9.158;2022-11-20T13:00:23;1999.90;;;999.90;;
14015;SDS011;7083;48.854;9.158;2022-11-20T13:03:04;1999.90;;;999.90;;
14015;SDS011;7083;48.854;9.158;2022-11-20T13:08:08;1999.90;;;999.90;;
14015;SDS011;7083;48.854;9.158;2022-11-20T13:10:46;1999.90;;;999.90;;
14015;SDS011;7083;48.854;9.158;2022-11-20T13:13:19;1999.90;;;999.90;;
14015;SDS011;7083;48.854;9.158;2022-11-20T13:15:54;1376.83;;;705.50;;
14015;SDS011;7083;48.854;9.158;2022-11-20T13:18:23;1999.90;;;999.90;;
14015;SDS011;7083;48.854;9.158;2022-11-20T13:20:51;1999.90;;;999.90;;
14015;SDS011;7083;48.854;9.158;2022-11-20T13:23:24;1999.90;;;999.90;;
14015;SDS011;7083;48.854;9.158;2022-11-20T13:28:42;1999.90;;;999.90;;
14015;SDS011;7083;48.854;9.158;2022-11-20T13:31:31;1999.90;;;999.90;;
14015;SDS011;7083;48.854;9.158;2022-11-20T13:34:05;1999.90;;;999.90;;
14015;SDS011;7083;48.854;9.158;2022-11-20T13:36:36;1999.90;;;999.90;;
14015;SDS011;7083;48.854;9.158;2022-11-20T13:39:23;1999.90;;;999.90;;
14015;SDS011;7083;48.854;9.158;2022-11-20T13:41:55;1999.90;;;999.90;;
14015;SDS011;7083;48.854;9.158;2022-11-20T13:44:36;1999.90;;;999.90;;
14015;SDS011;7083;48.854;9.158;2022-11-20T13:47:20;1999.90;;;999.90;;
14015;SDS011;7083;48.854;9.158;2022-11-20T13:50:00;1999.90;;;999.90;;
14015;SDS011;7083;48.854;9.158;2022-11-20T13:52:39;1999.90;;;999.90;;
14015;SDS011;7083;48.854;9.158;2022-11-20T13:55:23;1999.90;;;999.90;;
14015;SDS011;7083;48.854;9.158;2022-11-20T13:58:02;1999.90;;;999.90;;
14015;SDS011;7083;48.854;9.158;2022-11-20T14:00:44;1999.90;;;999.90;;
14015;SDS011;7083;48.854;9.158;2022-11-20T14:03:18;668.30;;;598.07;;
14015;SDS011;7083;48.854;9.158;2022-11-20T14:05:49;1999.90;;;999.90;;
14015;SDS011;7083;48.854;9.158;2022-11-20T14:08:21;1999.90;;;999.90;;
14015;SDS011;7083;48.854;9.158;2022-11-20T14:11:01;1999.90;;;999.90;;
14015;SDS011;7083;48.854;9.158;2022-11-20T14:16:33;1999.90;;;999.90;;
14015;SDS011;7083;48.854;9.158;2022-11-20T14:19:21;1999.90;;;999.90;;
14015;SDS011;7083;48.854;9.158;2022-11-20T14:22:09;1999.90;;;999.90;;
14015;SDS011;7083;48.854;9.158;2022-11-20T14:24:41;1999.90;;;999.90;;
14015;SDS011;7083;48.854;9.158;2022-11-20T14:27:12;1999.90;;;999.90;;
14015;SDS011;7083;48.854;9.158;2022-11-20T14:29:41;1999.90;;;999.90;;
14015;SDS011;7083;48.854;9.158;2022-11-20T14:32:10;1999.90;;;999.90;;
14015;SDS011;7083;48.854;9.158;2022-11-20T14:34:40;1999.90;;;999.90;;
14015;SDS011;7083;48.854;9.158;2022-11-20T14:37:10;1999.90;;;999.90;;
14015;SDS011;7083;48.854;9.158;2022-11-20T14:39:40;1999.90;;;999.90;;
14015;SDS011;7083;48.854;9.158;2022-11-20T14:42:14;1999.90;;;999.90;;
14015;SDS011;7083;48.854;9.158;2022-11-20T14:44:43;1999.90;;;999.90;;
14015;SDS011;7083;48.854;9.158;2022-11-20T14:47:11;1999.90;;;999.90;;
14015;SDS011;7083;48.854;9.158;2022-11-20T14:49:40;1999.90;;;999.90;;
14015;SDS011;7083;48.854;9.158;2022-11-20T14:52:11;1999.90;;;999.90;;
14015;SDS011;7083;48.854;9.158;2022-11-20T14:54:43;1999.90;;;999.90;;
14015;SDS011;7083;48.854;9.158;2022-11-20T14:57:19;1999.90;;;999.90;;
14015;SDS011;7083;48.854;9.158;2022-11-20T14:59:50;1999.90;;;999.90;;
14015;SDS011;7083;48.854;9.158;2022-11-20T15:02:16;1999.90;;;999.90;;
14015;SDS011;7083;48.854;9.158;2022-11-20T15:04:44;1999.90;;;999.90;;
14015;SDS011;7083;48.854;9.158;2022-11-20T15:07:22;1999.90;;;999.90;;
14015;SDS011;7083;48.854;9.158;2022-11-20T15:09:58;1999.90;;;999.90;;
14015;SDS011;7083;48.854;9.158;2022-11-20T15:12:26;1999.90;;;999.90;;
14015;SDS011;7083;48.854;9.158;2022-11-20T15:14:54;1999.90;;;999.90;;
14015;SDS011;7083;48.854;9.158;2022-11-20T15:17:21;1999.90;;;999.90;;
14015;SDS011;7083;48.854;9.158;2022-11-20T15:19:49;1999.90;;;999.90;;
14015;SDS011;7083;48.854;9.158;2022-11-20T15:22:16;1999.90;;;999.90;;
14015;SDS011;7083;48.854;9.158;2022-11-20T15:24:43;1999.90;;;999.90;;
14015;SDS011;7083;48.854;9.158;2022-11-20T15:27:10;1999.90;;;999.90;;
14015;SDS011;7083;48.854;9.158;2022-11-20T15:29:37;1591.10;;;907.17;;
14015;SDS011;7083;48.854;9.158;2022-11-20T15:32:05;1999.90;;;999.90;;
14015;SDS011;7083;48.854;9.158;2022-11-20T15:34:33;1999.90;;;999.90;;